Kullen, Sweden

6:28 AM CEST on May 25, 2015 (GMT +0200)
IARILDNY2 | | Change Station
CLOSE
Current Station
Personal Weather Station
Location: Arild, Hoganas
Elevation: 151 ft
Nearby Weather Stations

Elev 151 ft 56.26 °N, 12.58 °E | Updated 13 minutes ago

Light Drizzle
Light Drizzle
48.6 °F
Feels Like 49 °F
N
3.0
Wind Variable Wind from SW
Gusts 8.0 mph

Today
High -- | Low -- °F
--% Chance of Precip.
Yesterday
High -- | Low -- °F
Precip. -- in
4:39 AM 9:35 PM
Waxing Crescent, 45% visible
Pressure 29.89 in
Visibility 6.2 miles
Clouds Few 1600 ft
Overcast 3900 ft
Windchill 49 °F
Dew Point 44 °F
Humidity 85%
Rainfall 0.00 in
Snow Depth Not available.
UV 0 out of 12
Pollen Not available.
Air Quality Not available.
Flu Activity Not available.
METAR ESTA 250420Z 19006KT 9999 -DZ FEW016 OVC039 10/08 Q1012 REDZ

More Conditions Fewer Conditions

Pressure 29.89 in
Visibility 6.2 miles
Clouds Few 1600 ft
Overcast 3900 ft
Windchill 49 °F
Dew Point 44 °F
Humidity 85%
Rainfall 0.00 in
Snow Depth Not available.
UV 0 out of 12
Pollen Not available.
Air Quality Not available.
Flu Activity Not available.
METAR ESTA 250420Z 19006KT 9999 -DZ FEW016 OVC039 10/08 Q1012 REDZ

More Conditions Fewer Conditions

10-Day Weather Forecast

Almanac

Astronomy

May. 25, 2015 Rise Set
Actual Time
Civil Twilight
Nautical Twilight
Astronomical Twilight
Moon
Length of Visible Light
Length of Day
Tomorrow will be .
, % of the Moon is Illuminated

Today's Extremes

Country Highs Country Lows

Community

WunderPhotos

Upload Photos

1,823,953 photos uploaded!

WunderBlogs® & News

Nearby

Air Quality

  Air Quality AQ Index Pollutant
Not available.

Snow Depth

Station Depth Elevation

Earthquake Activity

City Distance Mag. Time & Date
Minimum magnitude displayed is 2.5.

Coastal Water Temperatures

Place Temperature

Stations

Nearby Weather Stations

Station Location Temp. Windchill Dew Point Humidity Wind Precip. Elev Updated Type